createdAt,value
2023-04-02T00:00:19.541Z,97500.40
2023-04-02T00:03:26.286Z,97503.00
2023-04-02T00:06:45.147Z,97498.80
2023-04-02T00:09:51.755Z,97495.80
2023-04-02T00:13:08.358Z,97500.00
2023-04-02T00:16:19.895Z,97498.80
2023-04-02T00:19:32.965Z,97500.20
2023-04-02T00:22:37.693Z,97502.40
2023-04-02T00:25:46.284Z,97509.80
2023-04-02T00:28:52.810Z,97513.40
2023-04-02T00:32:01.954Z,97517.20
2023-04-02T00:35:14.857Z,97515.80
2023-04-02T00:38:26.122Z,97513.00
2023-04-02T00:41:36.239Z,97518.20
2023-04-02T00:44:45.303Z,97520.40
2023-04-02T00:47:52.230Z,97515.80
2023-04-02T00:51:01.392Z,97518.60
2023-04-02T00:54:16.470Z,97514.60
2023-04-02T00:57:26.554Z,97518.00
2023-04-02T01:00:35.014Z,97520.40
2023-04-02T01:03:41.427Z,97519.60
2023-04-02T01:06:53.451Z,97519.20
2023-04-02T01:10:17.054Z,97516.80
2023-04-02T01:13:32.697Z,97516.60
2023-04-02T01:16:50.613Z,97517.00
2023-04-02T01:20:25.554Z,97513.20
2023-04-02T01:23:37.078Z,97517.20
2023-04-02T01:26:53.864Z,97519.20
2023-04-02T01:30:02.039Z,97524.60
2023-04-02T01:33:09.206Z,97522.80
2023-04-02T01:36:26.561Z,97522.40
2023-04-02T01:39:37.749Z,97520.80
2023-04-02T01:42:53.384Z,97519.80
2023-04-02T01:46:06.516Z,97517.80
2023-04-02T01:49:20.270Z,97513.00
2023-04-02T01:52:37.845Z,97518.60
2023-04-02T01:55:47.268Z,97529.40
2023-04-02T01:58:54.020Z,97531.80
2023-04-02T02:02:05.323Z,97534.00
2023-04-02T02:05:17.252Z,97535.20
2023-04-02T02:08:48.560Z,97537.40
2023-04-02T02:11:55.191Z,97541.60
2023-04-02T02:15:01.757Z,97541.00
2023-04-02T02:18:09.127Z,97541.40
2023-04-02T02:21:29.700Z,97543.80
2023-04-02T02:24:37.625Z,97539.20
2023-04-02T02:27:54.066Z,97538.40
2023-04-02T02:31:04.173Z,97539.80
2023-04-02T02:34:19.387Z,97536.40
2023-04-02T02:37:29.765Z,97540.60
2023-04-02T02:40:42.134Z,97539.20
2023-04-02T02:43:53.849Z,97537.00
2023-04-02T02:47:04.376Z,97535.40
2023-04-02T02:50:18.597Z,97533.80
2023-04-02T02:53:26.675Z,97531.40
2023-04-02T02:56:34.835Z,97530.40
2023-04-02T02:59:43.726Z,97529.00
2023-04-02T03:02:51.666Z,97531.60
2023-04-02T03:06:03.145Z,97536.40
2023-04-02T03:09:19.788Z,97539.20
2023-04-02T03:12:41.725Z,97541.40
2023-04-02T03:15:55.376Z,97544.20
2023-04-02T03:19:07.629Z,97545.60
2023-04-02T03:22:20.491Z,97549.60
2023-04-02T03:25:38.903Z,97544.40
2023-04-02T03:28:51.946Z,97541.40
2023-04-02T03:32:01.846Z,97544.20
2023-04-02T03:35:23.943Z,97542.40
2023-04-02T03:38:33.262Z,97541.40
2023-04-02T03:41:46.308Z,97541.40
2023-04-02T03:44:58.616Z,97548.20
2023-04-02T03:48:11.290Z,97547.80
2023-04-02T03:51:23.915Z,97543.60
2023-04-02T03:54:31.326Z,97542.60
2023-04-02T03:57:44.076Z,97554.20
2023-04-02T04:00:54.528Z,97556.60
2023-04-02T04:04:08.806Z,97553.00
2023-04-02T04:07:24.141Z,97562.20
2023-04-02T04:10:31.978Z,97563.00
2023-04-02T04:13:46.459Z,97563.20
2023-04-02T04:16:56.522Z,97567.60
2023-04-02T04:20:10.587Z,97572.00
2023-04-02T04:23:30.717Z,97574.40
2023-04-02T04:26:43.850Z,97576.80
2023-04-02T04:29:57.210Z,97577.00
2023-04-02T04:33:07.646Z,97579.60
2023-04-02T04:36:29.054Z,97583.00
2023-04-02T04:39:42.745Z,97582.40
2023-04-02T04:42:53.397Z,97587.00
2023-04-02T04:46:07.269Z,97587.80
2023-04-02T04:49:19.687Z,97587.60
2023-04-02T04:52:29.152Z,97597.40
2023-04-02T04:55:39.901Z,97597.00
2023-04-02T04:58:50.973Z,97599.40
2023-04-02T05:02:04.367Z,97598.60
2023-04-02T05:05:20.830Z,97596.40
2023-04-02T05:08:32.170Z,97595.80
2023-04-02T05:11:43.939Z,97605.60
2023-04-02T05:14:56.460Z,97608.80
2023-04-02T05:18:16.218Z,97614.20
2023-04-02T05:21:27.214Z,97613.60
2023-04-02T05:24:44.111Z,97609.80
2023-04-02T05:27:54.694Z,97613.80
2023-04-02T05:31:06.833Z,97616.80
2023-04-02T05:34:15.015Z,97621.20
2023-04-02T05:37:23.630Z,97623.00
2023-04-02T05:40:36.199Z,97623.00
2023-04-02T05:43:48.662Z,97625.40
2023-04-02T05:46:59.477Z,97630.40
2023-04-02T05:50:21.994Z,97625.60
2023-04-02T05:53:30.425Z,97628.20
2023-04-02T05:56:42.999Z,97630.80
2023-04-02T05:59:54.725Z,97633.80
2023-04-02T06:03:07.503Z,97639.60
2023-04-02T06:06:20.409Z,97644.40
2023-04-02T06:09:37.921Z,97642.80
2023-04-02T06:12:49.154Z,97641.00
2023-04-02T06:15:57.475Z,97644.40
2023-04-02T06:19:06.435Z,97646.60
2023-04-02T06:22:21.793Z,97650.60
2023-04-02T06:25:32.134Z,97652.80
2023-04-02T06:28:45.485Z,97649.00
2023-04-02T06:32:01.853Z,97657.20
2023-04-02T06:35:11.457Z,97652.80
2023-04-02T06:38:26.838Z,97656.60
2023-04-02T06:41:34.928Z,97653.20
2023-04-02T06:44:42.342Z,97658.40
2023-04-02T06:47:53.056Z,97658.60
2023-04-02T06:51:04.085Z,97659.20
2023-04-02T06:54:18.062Z,97663.80
2023-04-02T06:57:25.056Z,97670.60
2023-04-02T07:00:36.012Z,97665.80
2023-04-02T07:03:43.384Z,97667.40
2023-04-02T07:06:51.204Z,97670.00
2023-04-02T07:09:58.654Z,97667.40
2023-04-02T07:13:06.024Z,97671.20
2023-04-02T07:16:26.093Z,97672.80
2023-04-02T07:19:33.538Z,97674.20
2023-04-02T07:22:40.036Z,97678.60
2023-04-02T07:25:48.477Z,97683.40
2023-04-02T07:28:55.559Z,97684.80
2023-04-02T07:32:02.328Z,97685.80
2023-04-02T07:35:10.556Z,97684.40
2023-04-02T07:38:18.542Z,97690.80
2023-04-02T07:41:25.305Z,97693.80
2023-04-02T07:44:33.442Z,97699.20
2023-04-02T07:47:39.924Z,97698.00
2023-04-02T07:50:46.718Z,97698.80
2023-04-02T07:53:57.229Z,97701.00
2023-04-02T07:57:04.082Z,97703.20
2023-04-02T08:00:13.774Z,97713.00
2023-04-02T08:03:20.408Z,97710.80
2023-04-02T08:06:27.958Z,97717.60
2023-04-02T08:09:34.634Z,97725.20
2023-04-02T08:12:41.289Z,97727.80
2023-04-02T08:15:47.548Z,97724.60
2023-04-02T08:18:54.022Z,97728.80
2023-04-02T08:22:01.052Z,97734.40
2023-04-02T08:25:08.163Z,97730.40
2023-04-02T08:28:15.351Z,97739.40
2023-04-02T08:31:27.695Z,97739.60
2023-04-02T08:34:34.181Z,97743.40
2023-04-02T08:37:46.371Z,97743.00
2023-04-02T08:40:55.849Z,97749.60
2023-04-02T08:44:32.241Z,97747.60
2023-04-02T08:47:42.411Z,97748.80
2023-04-02T08:50:55.812Z,97748.80
2023-04-02T08:54:10.189Z,97749.00
2023-04-02T08:57:28.293Z,97750.20
2023-04-02T09:00:39.565Z,97757.80
2023-04-02T09:03:49.747Z,97764.80
2023-04-02T09:06:59.382Z,97768.80
2023-04-02T09:10:06.400Z,97776.00
2023-04-02T09:13:20.965Z,97774.40
2023-04-02T09:16:42.461Z,97781.40
2023-04-02T09:19:58.897Z,97780.80
2023-04-02T09:23:06.928Z,97789.80
2023-04-02T09:26:23.658Z,97789.00
2023-04-02T09:29:42.941Z,97785.00
2023-04-02T09:32:52.451Z,97786.00
2023-04-02T09:36:02.915Z,97791.00
2023-04-02T09:39:20.890Z,97796.80
2023-04-02T09:42:36.823Z,97795.80
2023-04-02T09:45:47.205Z,97798.60
2023-04-02T09:48:58.585Z,97796.80
2023-04-02T09:52:21.835Z,97804.00
2023-04-02T09:55:31.452Z,97802.40
2023-04-02T09:58:37.981Z,97800.20
2023-04-02T10:01:46.164Z,97798.80
2023-04-02T10:04:52.544Z,97797.80
2023-04-02T10:08:11.090Z,97799.60
2023-04-02T10:11:21.632Z,97799.60
2023-04-02T10:14:33.032Z,97799.00
2023-04-02T10:17:41.765Z,97800.40
2023-04-02T10:20:53.839Z,97801.20
2023-04-02T10:24:03.594Z,97804.40
2023-04-02T10:27:25.928Z,97805.00
2023-04-02T10:30:42.380Z,97802.20
2023-04-02T10:33:52.344Z,97801.00
2023-04-02T10:37:01.320Z,97800.00
2023-04-02T10:40:16.036Z,97803.00
2023-04-02T10:43:53.035Z,97798.20
2023-04-02T10:47:10.831Z,97794.40
2023-04-02T10:50:34.411Z,97795.40
2023-04-02T10:53:47.257Z,97796.00
2023-04-02T10:56:58.673Z,97793.60
2023-04-02T11:00:17.674Z,97797.00
2023-04-02T11:03:34.777Z,97798.40
2023-04-02T11:06:48.934Z,97795.00
2023-04-02T11:09:58.288Z,97799.40
2023-04-02T11:13:10.981Z,97795.80
2023-04-02T11:16:18.278Z,97791.00
2023-04-02T11:19:28.503Z,97789.80
2023-04-02T11:22:35.031Z,97790.40
2023-04-02T11:25:41.699Z,97792.40
2023-04-02T11:28:49.058Z,97789.80
2023-04-02T11:32:17.146Z,97789.20
2023-04-02T11:35:39.889Z,97790.80
2023-04-02T11:38:57.542Z,97787.40
2023-04-02T11:42:31.292Z,97788.20
2023-04-02T11:45:58.767Z,97776.80
2023-04-02T11:49:36.046Z,97779.40
2023-04-02T11:52:54.401Z,97775.80
2023-04-02T11:56:22.021Z,97775.40
2023-04-02T11:59:34.358Z,97786.80
2023-04-02T12:02:40.495Z,97781.00
2023-04-02T12:05:59.199Z,97781.60
2023-04-02T12:09:18.715Z,97780.60
2023-04-02T12:12:33.700Z,97774.60
2023-04-02T12:15:47.084Z,97770.20
2023-04-02T12:18:56.012Z,97765.00
2023-04-02T12:22:04.020Z,97768.60
2023-04-02T12:25:29.756Z,97763.60
2023-04-02T12:28:38.428Z,97763.20
2023-04-02T12:31:49.243Z,97757.00
2023-04-02T12:34:58.170Z,97761.80
2023-04-02T12:38:04.909Z,97762.20
2023-04-02T12:41:24.636Z,97759.60
2023-04-02T12:44:33.024Z,97754.60
2023-04-02T12:47:39.756Z,97751.40
2023-04-02T12:50:46.333Z,97747.00
2023-04-02T12:53:57.717Z,97741.20
2023-04-02T12:57:39.113Z,97740.60
2023-04-02T13:00:45.720Z,97739.40
2023-04-02T13:04:06.583Z,97741.60
2023-04-02T13:07:25.590Z,97743.20
2023-04-02T13:10:35.646Z,97746.40
2023-04-02T13:13:45.051Z,97747.60
2023-04-02T13:16:52.959Z,97745.40
2023-04-02T13:20:37.228Z,97745.40
2023-04-02T13:23:44.604Z,97733.80
2023-04-02T13:26:52.617Z,97738.00
2023-04-02T13:30:08.644Z,97738.80
2023-04-02T13:33:15.831Z,97741.00
2023-04-02T13:36:22.358Z,97739.00
2023-04-02T13:39:30.457Z,97733.60
2023-04-02T13:42:37.514Z,97735.20
2023-04-02T13:45:45.433Z,97734.20
2023-04-02T13:48:52.533Z,97734.00
2023-04-02T13:52:03.298Z,97741.40
2023-04-02T13:55:11.314Z,97736.80
2023-04-02T13:58:19.141Z,97736.80
2023-04-02T14:01:27.487Z,97752.20
2023-04-02T14:04:39.038Z,97756.40
2023-04-02T14:07:58.749Z,97754.20
2023-04-02T14:13:52.884Z,97772.20
2023-04-02T14:17:26.328Z,97775.60
2023-04-02T14:20:51.062Z,97766.20
2023-04-02T14:27:47.655Z,97765.40
2023-04-02T14:31:20.777Z,97761.00
2023-04-02T14:34:41.947Z,97771.20
2023-04-02T14:38:05.899Z,97767.80
2023-04-02T14:41:24.861Z,97770.00
2023-04-02T14:44:46.376Z,97770.60
2023-04-02T14:48:01.393Z,97763.80
2023-04-02T14:51:23.603Z,97775.20
2023-04-02T14:54:50.497Z,97774.60
2023-04-02T14:58:05.447Z,97776.00
2023-04-02T15:01:20.519Z,97779.80
2023-04-02T15:04:47.385Z,97788.00
2023-04-02T15:08:04.651Z,97788.60
2023-04-02T15:11:21.400Z,97786.80
2023-04-02T15:14:46.356Z,97791.00
2023-04-02T15:17:55.758Z,97786.20
2023-04-02T15:21:23.080Z,97786.60
2023-04-02T15:24:44.121Z,97788.20
2023-04-02T15:28:17.008Z,97792.80
2023-04-02T15:31:29.946Z,97794.80
2023-04-02T15:34:58.221Z,97793.00
2023-04-02T15:38:19.486Z,97799.60
2023-04-02T15:41:33.687Z,97795.00
2023-04-02T15:44:57.740Z,97796.80
2023-04-02T15:48:52.479Z,97808.20
2023-04-02T15:52:22.003Z,97813.00
2023-04-02T15:55:40.426Z,97816.80
2023-04-02T15:59:19.776Z,97815.20
2023-04-02T16:03:03.243Z,97820.00
2023-04-02T16:06:23.813Z,97825.60
2023-04-02T16:09:44.200Z,97833.20
2023-04-02T16:12:57.957Z,97840.80
2023-04-02T16:16:12.644Z,97840.80
2023-04-02T16:19:31.844Z,97848.40
2023-04-02T16:22:57.223Z,97860.20
2023-04-02T16:26:32.517Z,97865.20
2023-04-02T16:29:59.994Z,97870.80
2023-04-02T16:33:32.805Z,97873.40
2023-04-02T16:36:54.064Z,97874.20
2023-04-02T16:40:18.302Z,97878.20
2023-04-02T16:43:36.116Z,97884.40
2023-04-02T16:47:00.668Z,97892.80
2023-04-02T16:50:22.911Z,97892.60
2023-04-02T16:53:50.960Z,97898.00
2023-04-02T16:57:26.685Z,97912.20
2023-04-02T17:00:49.563Z,97922.00
2023-04-02T17:04:20.012Z,97929.40
2023-04-02T17:07:42.146Z,97934.20
2023-04-02T17:11:02.742Z,97940.00
2023-04-02T17:14:27.271Z,97951.80
2023-04-02T17:17:37.500Z,97960.40
2023-04-02T17:20:46.080Z,97967.00
2023-04-02T17:24:03.966Z,97973.40
2023-04-02T17:27:24.377Z,97974.20
2023-04-02T17:30:42.603Z,97980.60
2023-04-02T17:33:51.013Z,97980.80
2023-04-02T17:37:16.859Z,97991.20
2023-04-02T17:40:35.873Z,97997.40
2023-04-02T17:43:54.380Z,97999.80
2023-04-02T17:47:17.105Z,98011.20
2023-04-02T17:50:48.406Z,98024.40
2023-04-02T17:54:17.293Z,98023.60
2023-04-02T17:57:44.026Z,98029.00
2023-04-02T18:01:06.942Z,98034.00
2023-04-02T18:04:33.237Z,98041.00
2023-04-02T18:07:54.813Z,98046.00
2023-04-02T18:11:15.463Z,98056.40
2023-04-02T18:14:45.478Z,98052.60
2023-04-02T18:17:54.886Z,98049.80
2023-04-02T18:21:16.172Z,98057.40
2023-04-02T18:25:00.717Z,98061.60
2023-04-02T18:28:42.234Z,98074.60
2023-04-02T18:32:03.563Z,98088.00
2023-04-02T18:35:23.688Z,98083.20
2023-04-02T18:38:45.832Z,98096.60
2023-04-02T18:42:04.624Z,98102.40
2023-04-02T18:45:23.768Z,98099.40
2023-04-02T18:48:52.137Z,98100.80
2023-04-02T18:52:05.855Z,98102.60
2023-04-02T18:55:22.485Z,98119.60
2023-04-02T18:58:40.430Z,98125.80
2023-04-02T19:01:53.878Z,98131.00
2023-04-02T19:05:07.818Z,98136.60
2023-04-02T19:08:21.835Z,98140.20
2023-04-02T19:11:31.701Z,98139.40
2023-04-02T19:14:37.867Z,98141.00
2023-04-02T19:17:49.507Z,98149.00
2023-04-02T19:21:04.809Z,98152.40
2023-04-02T19:24:35.163Z,98159.00
2023-04-02T19:28:07.420Z,98167.20
2023-04-02T19:31:32.929Z,98175.40
2023-04-02T19:34:49.833Z,98174.80
2023-04-02T19:38:10.879Z,98179.00
2023-04-02T19:41:31.315Z,98183.40
2023-04-02T19:44:43.074Z,98192.60
2023-04-02T19:47:51.454Z,98192.20
2023-04-02T19:51:00.555Z,98196.00
2023-04-02T19:54:08.774Z,98196.00
2023-04-02T19:57:19.658Z,98198.80
2023-04-02T20:00:27.697Z,98201.40
2023-04-02T20:03:36.118Z,98198.80
2023-04-02T20:06:44.725Z,98204.60
2023-04-02T20:09:52.835Z,98212.40
2023-04-02T20:13:00.870Z,98214.60
2023-04-02T20:16:10.573Z,98227.60
2023-04-02T20:19:18.798Z,98237.20
2023-04-02T20:22:27.182Z,98235.20
2023-04-02T20:25:35.231Z,98246.60
2023-04-02T20:28:43.816Z,98248.80
2023-04-02T20:31:51.928Z,98254.00
2023-04-02T20:35:00.656Z,98260.00
2023-04-02T20:38:09.142Z,98260.00
2023-04-02T20:41:17.369Z,98262.40
2023-04-02T20:44:28.865Z,98275.00
2023-04-02T20:47:37.096Z,98281.40
2023-04-02T20:50:46.429Z,98283.60
2023-04-02T20:53:55.437Z,98287.00
2023-04-02T20:57:03.871Z,98281.80
2023-04-02T21:00:15.040Z,98290.60
2023-04-02T21:03:23.252Z,98292.00
2023-04-02T21:06:33.981Z,98294.00
2023-04-02T21:09:42.410Z,98292.00
2023-04-02T21:12:50.661Z,98297.60
2023-04-02T21:15:59.039Z,98297.00
2023-04-02T21:19:09.670Z,98302.20
2023-04-02T21:22:17.741Z,98302.80
2023-04-02T21:25:26.693Z,98306.60
2023-04-02T21:28:36.447Z,98301.80
2023-04-02T21:31:46.032Z,98298.40
2023-04-02T21:34:55.113Z,98306.00
2023-04-02T21:38:04.106Z,98300.60
2023-04-02T21:41:24.535Z,98309.00
2023-04-02T21:44:34.326Z,98308.40
2023-04-02T21:47:42.476Z,98313.00
2023-04-02T21:50:50.909Z,98318.60
2023-04-02T21:54:00.162Z,98321.20
2023-04-02T21:57:08.607Z,98322.20
2023-04-02T22:00:19.744Z,98329.60
2023-04-02T22:03:31.661Z,98328.00
2023-04-02T22:06:44.486Z,98332.60
2023-04-02T22:09:53.269Z,98335.80
2023-04-02T22:13:02.632Z,98339.60
2023-04-02T22:16:15.186Z,98335.40
2023-04-02T22:19:24.040Z,98334.20
2023-04-02T22:22:32.492Z,98338.20
2023-04-02T22:25:40.702Z,98340.00
2023-04-02T22:28:52.949Z,98342.60
2023-04-02T22:32:01.760Z,98346.20
2023-04-02T22:35:11.589Z,98349.40
2023-04-02T22:38:18.406Z,98352.80
2023-04-02T22:41:29.797Z,98350.60
2023-04-02T22:44:38.014Z,98353.00
2023-04-02T22:47:46.790Z,98352.60
2023-04-02T22:50:56.006Z,98357.60
2023-04-02T22:54:04.791Z,98355.80
2023-04-02T22:57:13.175Z,98363.80
2023-04-02T23:00:23.196Z,98358.40
2023-04-02T23:03:29.681Z,98361.20
2023-04-02T23:06:38.144Z,98360.20
2023-04-02T23:09:46.505Z,98363.40
2023-04-02T23:12:54.646Z,98372.40
2023-04-02T23:16:03.558Z,98371.20
2023-04-02T23:19:12.073Z,98369.40
2023-04-02T23:22:20.193Z,98370.40
2023-04-02T23:25:28.732Z,98370.60
2023-04-02T23:28:38.670Z,98370.60
2023-04-02T23:31:47.568Z,98369.40
2023-04-02T23:34:55.833Z,98371.20
2023-04-02T23:38:04.458Z,98371.20
2023-04-02T23:41:16.141Z,98372.00
2023-04-02T23:44:24.536Z,98375.60
2023-04-02T23:47:32.877Z,98380.60
2023-04-02T23:50:41.771Z,98380.60
2023-04-02T23:53:50.704Z,98377.60
2023-04-02T23:56:59.203Z,98378.20
